KRBL/RBL METAR and TAF weather

Enter ICAO airport designator
Station Type Date Time Source
KRBL METAR 2020/07/10 20:54 UTC NOAA

KRBL 102054Z AUTO 13008KT 10SM CLR 37/06 A2995 RMK AO2 SLP137 T03670061 58009


Station Type Date Time Source
KRBL Decoded METAR 2020/07/10 20:54 UTC NOAA

RED BLUFF MUNICIPAL AIRPORT, CA, United States (KRBL) 40-09N 122-15W 104M
Jul 10, 2020 - 04:54 PM EDT / 2020.07.10 2054 UTC
Wind: from the SE (130 degrees) at 9 MPH (8 KT):0
Visibility: 10 mile(s):0
Sky conditions: clear
Temperature: 98.1 F (36.7 C)
Dew Point: 43.0 F (6.1 C)
Relative Humidity: 15%
Pressure (altimeter): 29.95 in. Hg (1014 hPa)
Pressure tendency: 0.03 inches (0.9 hPa) lower than three hours ago
ob: KRBL 102054Z AUTO 13008KT 10SM CLR 37/06 A2995 RMK AO2 SLP137 T03670061 58009
cycle: 21

Station Type Date Time Source
KRBL TAF 2020/07/10 18:39 UTC NOAA

TAF KRBL 101736Z 1018/1118 VRB05KT P6SM SKC
FM102000 16008KT P6SM SKC
FM110500 33005KT P6SM SKC

Example: see airport list